Time;durP1;ratioP1;P1;durP2;ratioP2;P2;SDS_P1;SDS_P2;PMS_P1;PMS_P2;Temp;Humidity;BMP_temperature;BMP_pressure;BME280_temperature;BME280_humidity;BME280_pressure;Samples;Min_cycle;Max_cycle;Signal;HPM_P1;HPM_P2
2023/01/30 00:00:57;;;;;;;40.13;24.30;;;6.20;99.90;;;;;;4821377;29;20714;-84
2023/01/30 00:03:24;;;;;;;43.53;25.03;;;6.20;99.90;;;;;;4834472;29;20046;-86
2023/01/30 00:05:50;;;;;;;39.50;24.30;;;6.30;99.90;;;;;;4855439;29;20038;-88
2023/01/30 00:08:16;;;;;;;39.50;24.43;;;6.30;99.90;;;;;;4832355;29;20057;-85
2023/01/30 00:10:45;;;;;;;41.73;24.80;;;6.30;99.90;;;;;;4839993;29;20046;-87
2023/01/30 00:13:13;;;;;;;39.60;23.63;;;6.30;99.90;;;;;;4850616;29;20050;-87
2023/01/30 00:15:42;;;;;;;37.30;22.83;;;6.40;99.90;;;;;;4848097;29;20046;-87
2023/01/30 00:18:12;;;;;;;35.93;23.03;;;6.40;99.90;;;;;;4837869;29;20136;-86
2023/01/30 00:20:43;;;;;;;40.30;24.00;;;6.40;99.90;;;;;;4836249;29;20092;-86
2023/01/30 00:23:09;;;;;;;39.00;22.73;;;6.40;99.90;;;;;;4843807;29;20041;-87
2023/01/30 00:25:34;;;;;;;35.33;21.30;;;6.50;99.90;;;;;;4843748;29;20074;-86
2023/01/30 00:28:01;;;;;;;35.60;21.40;;;6.50;99.90;;;;;;4836272;29;20088;-87
2023/01/30 00:30:27;;;;;;;32.00;21.20;;;6.50;99.90;;;;;;4827983;29;20106;-86
2023/01/30 00:32:57;;;;;;;35.77;21.07;;;6.60;99.90;;;;;;4828002;29;20045;-89
2023/01/30 00:35:27;;;;;;;34.43;21.37;;;6.60;99.90;;;;;;4843614;29;20538;-86
2023/01/30 00:37:57;;;;;;;31.10;19.53;;;6.60;99.90;;;;;;4839360;29;20079;-86
2023/01/30 00:40:36;;;;;;;34.43;19.13;;;6.60;99.90;;;;;;4845886;29;20045;-87
2023/01/30 00:48:47;;;;;;;32.93;19.33;;;6.70;99.90;;;;;;4842660;29;20049;-88
2023/01/30 00:51:15;;;;;;;30.63;19.73;;;6.70;99.90;;;;;;4831986;29;20049;-85
2023/01/30 00:53:41;;;;;;;34.20;20.47;;;6.70;99.90;;;;;;4845838;29;20137;-84
2023/01/30 00:56:07;;;;;;;30.47;18.73;;;6.70;99.90;;;;;;4848588;29;20057;-87
2023/01/30 00:58:33;;;;;;;30.50;20.67;;;6.70;99.90;;;;;;4811750;29;20046;-85
2023/01/30 01:00:58;;;;;;;30.20;19.70;;;6.70;99.90;;;;;;4820404;29;20038;-87
2023/01/30 01:03:24;;;;;;;33.37;20.27;;;6.70;99.90;;;;;;4846510;29;20046;-92
2023/01/30 01:05:50;;;;;;;30.57;19.33;;;6.70;99.90;;;;;;4831037;29;20105;-87
2023/01/30 01:08:16;;;;;;;30.40;20.10;;;6.80;99.90;;;;;;4832718;29;20045;-84
2023/01/30 01:10:42;;;;;;;28.17;18.33;;;6.70;99.90;;;;;;4843155;29;20562;-86
2023/01/30 01:13:09;;;;;;;33.47;17.53;;;6.80;99.90;;;;;;4832356;29;20049;-88
2023/01/30 01:15:38;;;;;;;33.50;18.27;;;6.80;99.90;;;;;;4854456;29;20053;-88
2023/01/30 01:18:04;;;;;;;32.27;17.70;;;6.80;99.90;;;;;;4842901;29;20053;-87
2023/01/30 01:20:35;;;;;;;29.83;17.60;;;6.80;99.90;;;;;;4849116;29;20044;-89
2023/01/30 01:23:01;;;;;;;28.05;16.77;;;6.80;99.90;;;;;;4849012;29;20053;-89
2023/01/30 01:25:27;;;;;;;26.43;16.03;;;6.70;99.90;;;;;;4864090;29;20097;-87
2023/01/30 01:27:56;;;;;;;20.77;13.27;;;6.70;99.90;;;;;;4864337;29;20052;-87
2023/01/30 01:30:22;;;;;;;23.17;15.03;;;6.80;99.90;;;;;;4859513;29;20462;-89
2023/01/30 01:32:48;;;;;;;23.57;13.57;;;6.70;99.90;;;;;;4842723;29;20124;-87
2023/01/30 01:35:13;;;;;;;24.90;13.73;;;6.80;99.90;;;;;;4819340;29;20041;-87
2023/01/30 01:37:39;;;;;;;21.50;12.67;;;6.70;99.90;;;;;;4845811;29;20037;-89
2023/01/30 01:42:57;;;;;;;19.50;12.83;;;6.80;99.90;;;;;;4862412;29;20061;-88
2023/01/30 01:45:24;;;;;;;19.03;11.73;;;6.80;99.90;;;;;;4835554;29;20094;-87
2023/01/30 01:48:09;;;;;;;19.30;11.53;;;6.70;99.90;;;;;;4845359;29;20121;-89
2023/01/30 01:50:49;;;;;;;17.00;10.20;;;6.80;99.90;;;;;;4859953;29;20052;-87
2023/01/30 01:53:19;;;;;;;16.50;11.00;;;6.70;99.90;;;;;;4863893;29;20053;-89
2023/01/30 01:55:51;;;;;;;21.40;11.17;;;6.70;99.90;;;;;;4864176;29;20527;-88
2023/01/30 01:58:19;;;;;;;;;;;6.70;99.90;;;;;;4848727;29;20049;-86
2023/01/30 02:00:47;;;;;;;17.27;10.60;;;6.70;99.90;;;;;;4848663;29;19974;-85
2023/01/30 02:03:22;;;;;;;15.10;9.30;;;6.70;99.90;;;;;;4838262;29;20038;-85
2023/01/30 02:05:54;;;;;;;14.70;8.77;;;6.70;99.90;;;;;;4825060;29;20042;-91
2023/01/30 02:08:46;;;;;;;11.23;8.40;;;6.70;99.90;;;;;;4845634;29;20048;-88
2023/01/30 02:11:28;;;;;;;11.18;7.93;;;6.80;99.90;;;;;;4830863;29;20504;-89
2023/01/30 02:13:57;;;;;;;12.27;7.55;;;6.70;99.90;;;;;;4820414;29;20049;-89
2023/01/30 02:16:31;;;;;;;11.07;6.83;;;6.70;99.90;;;;;;4831148;29;20132;-90
2023/01/30 02:18:57;;;;;;;8.63;6.17;;;6.80;99.90;;;;;;4844896;29;20050;-91
2023/01/30 02:21:42;;;;;;;8.87;5.53;;;6.80;99.90;;;;;;4820371;29;20382;-89
2023/01/30 02:24:50;;;;;;;9.23;5.50;;;6.80;99.90;;;;;;4828122;29;20045;-88
2023/01/30 02:27:28;;;;;;;8.57;5.67;;;6.80;99.90;;;;;;4839017;29;20057;-88
2023/01/30 02:30:13;;;;;;;10.10;5.37;;;6.80;99.90;;;;;;4820216;29;20121;-86
2023/01/30 02:33:13;;;;;;;7.33;5.40;;;6.90;99.90;;;;;;4844355;29;20037;-87
2023/01/30 02:36:25;;;;;;;10.23;5.80;;;6.90;99.90;;;;;;4856296;29;20037;-87
2023/01/30 02:39:01;;;;;;;11.63;5.10;;;6.80;99.90;;;;;;4806870;29;20586;-89
2023/01/30 02:41:42;;;;;;;8.53;5.67;;;6.90;99.90;;;;;;4849839;29;20172;-88
2023/01/30 02:44:15;;;;;;;14.27;5.30;;;6.80;99.90;;;;;;4823131;29;20081;-91
2023/01/30 02:46:53;;;;;;;9.40;5.53;;;6.90;99.90;;;;;;4825377;29;20108;-88
2023/01/30 02:49:38;;;;;;;11.70;5.80;;;6.90;99.90;;;;;;4828654;29;20401;-87
2023/01/30 02:52:06;;;;;;;11.10;5.60;;;6.90;99.90;;;;;;4818443;29;20559;-90
2023/01/30 02:54:32;;;;;;;11.20;5.90;;;7.00;99.90;;;;;;4833843;29;20515;-87
2023/01/30 02:57:04;;;;;;;12.20;6.13;;;6.90;99.90;;;;;;4845777;29;20046;-89
2023/01/30 02:59:36;;;;;;;11.85;5.95;;;6.90;99.90;;;;;;4837115;29;20122;-84
2023/01/30 03:02:21;;;;;;;10.48;6.05;;;6.90;99.90;;;;;;4820691;29;20049;-83
2023/01/30 03:05:23;;;;;;;16.67;7.23;;;6.90;99.90;;;;;;4835888;29;20090;-83
2023/01/30 03:08:14;;;;;;;15.32;6.80;;;7.00;99.90;;;;;;4815534;29;20114;-82
2023/01/30 03:10:48;;;;;;;15.37;7.37;;;7.00;99.90;;;;;;4828608;29;20053;-84
2023/01/30 03:13:28;;;;;;;19.83;7.00;;;7.00;99.90;;;;;;4836070;29;20052;-84
2023/01/30 03:16:01;;;;;;;14.90;6.97;;;7.00;99.90;;;;;;4830364;29;20045;-83
2023/01/30 03:18:27;;;;;;;16.37;7.07;;;7.10;99.90;;;;;;4823039;29;20065;-84
2023/01/30 03:20:53;;;;;;;17.67;7.00;;;7.10;99.90;;;;;;4856400;29;20049;-83
2023/01/30 03:23:19;;;;;;;15.77;6.77;;;7.10;99.90;;;;;;4840031;29;20041;-85
2023/01/30 03:25:47;;;;;;;25.47;7.40;;;7.10;99.90;;;;;;4839546;29;20056;-84
2023/01/30 03:28:17;;;;;;;16.10;6.90;;;7.10;99.90;;;;;;4844464;29;20360;-83
2023/01/30 03:30:43;;;;;;;20.33;7.63;;;7.10;99.90;;;;;;4840593;29;20085;-83
2023/01/30 03:33:09;;;;;;;20.07;6.93;;;7.10;99.90;;;;;;4864223;29;20049;-83
2023/01/30 03:35:35;;;;;;;21.50;7.40;;;7.10;99.90;;;;;;4844372;29;20097;-82
2023/01/30 03:38:01;;;;;;;18.50;6.83;;;7.10;99.90;;;;;;4827094;29;20466;-82
2023/01/30 03:40:27;;;;;;;15.50;6.33;;;7.10;99.90;;;;;;4825246;29;20045;-82
2023/01/30 03:42:53;;;;;;;15.70;6.50;;;7.10;99.90;;;;;;4837331;29;20034;-82
2023/01/30 03:45:19;;;;;;;16.23;5.90;;;7.10;99.90;;;;;;4839728;29;20041;-82
2023/01/30 03:47:44;;;;;;;18.43;6.50;;;7.10;99.90;;;;;;4823404;29;20061;-81
2023/01/30 03:50:10;;;;;;;20.70;6.30;;;7.10;99.90;;;;;;4837464;29;20502;-82
2023/01/30 03:52:36;;;;;;;21.13;6.00;;;7.10;99.90;;;;;;4843993;29;20627;-82
2023/01/30 03:55:03;;;;;;;12.93;5.33;;;7.10;99.90;;;;;;4834730;29;20054;-81
2023/01/30 03:57:29;;;;;;;13.77;5.27;;;7.10;99.90;;;;;;4848886;29;20054;-83
2023/01/30 03:59:54;;;;;;;14.83;5.50;;;7.10;99.90;;;;;;4862254;29;20041;-82
2023/01/30 04:02:22;;;;;;;20.83;6.33;;;7.10;99.90;;;;;;4832664;29;20120;-81
2023/01/30 04:04:51;;;;;;;20.90;5.67;;;7.10;99.90;;;;;;4846824;29;20053;-83
2023/01/30 04:07:18;;;;;;;15.37;5.80;;;7.10;99.90;;;;;;4862604;29;20049;-82
2023/01/30 04:09:44;;;;;;;20.10;5.60;;;7.10;99.90;;;;;;4856911;29;20033;-83
2023/01/30 04:12:10;;;;;;;22.10;6.23;;;7.00;99.90;;;;;;4854744;29;20049;-81
2023/01/30 04:14:36;;;;;;;16.80;5.80;;;7.00;99.90;;;;;;4849876;29;20485;-83
2023/01/30 04:17:01;;;;;;;15.03;5.50;;;7.00;99.90;;;;;;4869358;29;20054;-82
2023/01/30 04:19:35;;;;;;;17.10;6.00;;;7.00;99.90;;;;;;4851640;29;20045;-82
2023/01/30 04:22:01;;;;;;;20.47;5.60;;;6.90;99.90;;;;;;4861702;29;20056;-83
2023/01/30 04:24:27;;;;;;;15.77;5.23;;;6.90;99.90;;;;;;4828364;29;20386;-81
2023/01/30 04:26:52;;;;;;;16.73;5.77;;;6.80;99.90;;;;;;4836928;29;20446;-83
2023/01/30 04:29:18;;;;;;;18.13;6.17;;;6.80;99.90;;;;;;4843363;29;20098;-81
2023/01/30 04:31:44;;;;;;;19.20;5.60;;;6.80;99.90;;;;;;4843965;29;20041;-83
2023/01/30 04:34:10;;;;;;;19.93;5.63;;;6.70;99.90;;;;;;4831119;29;20401;-81
2023/01/30 04:36:35;;;;;;;19.67;5.47;;;6.70;99.90;;;;;;4862874;29;20059;-80
2023/01/30 04:39:02;;;;;;;19.33;4.97;;;6.60;99.90;;;;;;4840011;29;20104;-82
2023/01/30 04:41:28;;;;;;;17.13;5.43;;;6.60;99.90;;;;;;4849080;29;20045;-83
2023/01/30 04:43:53;;;;;;;25.50;5.77;;;6.60;99.90;;;;;;4837678;29;20379;-80
2023/01/30 04:46:19;;;;;;;19.17;5.43;;;6.60;99.90;;;;;;4846332;29;20053;-81
2023/01/30 04:48:45;;;;;;;18.67;5.80;;;6.60;99.90;;;;;;4846649;29;20060;-82
2023/01/30 04:51:11;;;;;;;23.83;6.17;;;6.60;99.90;;;;;;4827779;29;20113;-81
2023/01/30 04:53:36;;;;;;;21.30;6.10;;;6.60;99.90;;;;;;4835336;29;20058;-81
2023/01/30 04:56:02;;;;;;;20.30;5.77;;;6.50;99.90;;;;;;4861958;29;20100;-82
2023/01/30 04:58:28;;;;;;;19.30;5.43;;;6.50;99.90;;;;;;4839556;29;20067;-81
2023/01/30 05:00:54;;;;;;;19.47;5.87;;;6.50;99.90;;;;;;4834241;29;20041;-83
2023/01/30 05:03:20;;;;;;;19.83;5.50;;;6.50;99.90;;;;;;4846412;29;20194;-83
2023/01/30 05:05:49;;;;;;;23.17;4.93;;;6.50;99.90;;;;;;4845487;29;20048;-81
2023/01/30 05:08:15;;;;;;;16.03;4.90;;;6.40;99.90;;;;;;4815541;29;20518;-83
2023/01/30 05:10:41;;;;;;;18.63;5.23;;;6.40;99.90;;;;;;4865999;29;20370;-82
2023/01/30 05:13:06;;;;;;;23.30;5.23;;;6.40;99.90;;;;;;4849434;29;20051;-82
2023/01/30 05:15:33;;;;;;;19.83;6.17;;;6.40;99.90;;;;;;4831005;29;20568;-82
2023/01/30 05:17:59;;;;;;;21.57;5.03;;;6.30;99.90;;;;;;4865337;29;20118;-82
2023/01/30 05:20:25;;;;;;;18.07;5.67;;;6.30;99.90;;;;;;4865548;29;20092;-81
2023/01/30 05:22:50;;;;;;;18.47;5.00;;;6.30;99.90;;;;;;4848902;29;20042;-82
2023/01/30 05:25:16;;;;;;;22.87;5.27;;;6.30;99.90;;;;;;4861519;29;20065;-81
2023/01/30 05:27:45;;;;;;;23.77;5.57;;;6.30;99.90;;;;;;4835712;29;20069;-82
2023/01/30 05:33:01;;;;;;;22.33;5.60;;;6.20;99.90;;;;;;4839283;29;20391;-83
2023/01/30 05:35:27;;;;;;;19.13;5.60;;;6.20;99.90;;;;;;4849024;29;20045;-84
2023/01/30 05:37:52;;;;;;;17.23;5.70;;;6.10;99.90;;;;;;4822725;29;20219;-83
2023/01/30 05:40:18;;;;;;;19.83;5.50;;;6.10;99.90;;;;;;4823284;29;20087;-83
2023/01/30 05:42:44;;;;;;;23.87;6.33;;;6.10;99.90;;;;;;4825465;29;20753;-83
2023/01/30 05:45:13;;;;;;;20.23;5.43;;;6.10;99.90;;;;;;4831638;29;20037;-83
2023/01/30 05:47:38;;;;;;;19.33;5.73;;;6.10;99.90;;;;;;4856003;29;20123;-83
2023/01/30 05:50:05;;;;;;;21.67;5.20;;;6.10;99.90;;;;;;4811067;29;20775;-83
2023/01/30 05:52:31;;;;;;;18.43;4.93;;;6.10;99.90;;;;;;4845257;29;20045;-84
2023/01/30 05:54:56;;;;;;;27.23;5.50;;;6.10;99.90;;;;;;4825034;29;20420;-83
2023/01/30 05:57:22;;;;;;;24.13;4.87;;;6.00;99.90;;;;;;4863494;29;20041;-83
2023/01/30 05:59:48;;;;;;;24.03;5.30;;;6.00;99.90;;;;;;4848340;29;20043;-83
2023/01/30 06:02:18;;;;;;;19.83;5.07;;;6.00;99.90;;;;;;4829503;29;20140;-84
2023/01/30 06:04:44;;;;;;;23.30;5.43;;;6.00;99.90;;;;;;4835342;29;20128;-83
2023/01/30 06:07:12;;;;;;;22.80;5.90;;;6.00;99.90;;;;;;4837684;29;20492;-82
2023/01/30 06:09:38;;;;;;;23.33;5.70;;;6.00;99.90;;;;;;4847339;29;20057;-82
2023/01/30 06:12:05;;;;;;;23.23;5.17;;;6.00;99.90;;;;;;4836919;29;20052;-83
2023/01/30 06:14:31;;;;;;;24.47;5.40;;;5.90;99.90;;;;;;4831427;29;20124;-83
2023/01/30 06:16:57;;;;;;;19.07;5.40;;;5.90;99.90;;;;;;4843341;29;20137;-83
2023/01/30 06:19:22;;;;;;;27.10;6.03;;;5.90;99.90;;;;;;4829832;29;20052;-82
2023/01/30 06:21:53;;;;;;;20.80;4.90;;;5.80;99.90;;;;;;4864459;29;20048;-84
2023/01/30 06:24:19;;;;;;;19.53;4.90;;;5.90;99.90;;;;;;4838840;29;20046;-82
2023/01/30 06:26:45;;;;;;;19.97;5.33;;;5.80;99.90;;;;;;4831083;29;20037;-83
2023/01/30 06:29:14;;;;;;;17.60;5.00;;;5.90;99.90;;;;;;4854688;29;20042;-85
2023/01/30 06:31:39;;;;;;;22.33;5.27;;;5.90;99.90;;;;;;4841580;29;20490;-82
2023/01/30 06:34:05;;;;;;;26.07;5.20;;;5.90;99.90;;;;;;4836465;29;20044;-83
2023/01/30 06:36:31;;;;;;;18.17;4.37;;;5.90;99.90;;;;;;4829770;29;20041;-82
2023/01/30 06:38:57;;;;;;;21.60;5.00;;;5.90;99.90;;;;;;4841088;29;20050;-82
2023/01/30 06:41:22;;;;;;;20.60;5.10;;;5.90;99.90;;;;;;4816093;29;20053;-82
2023/01/30 06:43:51;;;;;;;25.27;5.50;;;6.00;99.90;;;;;;4834627;29;20125;-83
2023/01/30 06:46:17;;;;;;;27.40;5.63;;;5.90;99.90;;;;;;4844027;29;20480;-84
2023/01/30 06:48:42;;;;;;;26.83;5.37;;;6.00;99.90;;;;;;4870892;29;20088;-82
2023/01/30 06:51:08;;;;;;;31.90;5.27;;;5.90;99.90;;;;;;4843618;29;20056;-83
2023/01/30 06:53:34;;;;;;;18.83;5.57;;;5.90;99.90;;;;;;4843728;29;20072;-82
2023/01/30 06:56:00;;;;;;;29.70;5.37;;;5.90;99.90;;;;;;4830337;29;20053;-82
2023/01/30 06:58:29;;;;;;;20.83;5.37;;;5.90;99.90;;;;;;4872651;29;20508;-83
2023/01/30 07:00:55;;;;;;;23.77;5.37;;;5.90;99.90;;;;;;4860468;29;20048;-82
2023/01/30 07:03:23;;;;;;;22.30;4.50;;;5.90;99.90;;;;;;4837303;29;20745;-83
2023/01/30 07:05:48;;;;;;;23.90;4.60;;;5.90;99.90;;;;;;4846492;29;20043;-83
2023/01/30 07:08:15;;;;;;;26.47;5.07;;;6.00;99.90;;;;;;4841326;29;20132;-84
2023/01/30 07:10:42;;;;;;;31.17;5.30;;;6.00;99.90;;;;;;4846238;29;20053;-82
2023/01/30 07:13:11;;;;;;;23.73;5.33;;;6.00;99.90;;;;;;4814329;29;20097;-83
2023/01/30 07:15:37;;;;;;;22.23;4.70;;;6.00;99.90;;;;;;4844461;29;20041;-83
2023/01/30 07:18:03;;;;;;;20.27;5.40;;;6.00;99.90;;;;;;4873424;29;20067;-82
2023/01/30 07:20:30;;;;;;;20.87;4.47;;;6.10;99.90;;;;;;4856888;29;20046;-82
2023/01/30 07:22:56;;;;;;;20.37;4.70;;;6.10;99.90;;;;;;4841690;29;20550;-83
2023/01/30 07:25:25;;;;;;;20.17;4.93;;;6.10;99.90;;;;;;4874955;29;20055;-83
2023/01/30 07:28:10;;;;;;;24.50;5.20;;;6.10;99.90;;;;;;4834479;29;20113;-82
2023/01/30 07:30:35;;;;;;;24.87;5.37;;;6.20;99.90;;;;;;4839620;29;20048;-83
2023/01/30 07:33:03;;;;;;;20.37;4.80;;;6.10;99.90;;;;;;4845705;29;20139;-83
2023/01/30 07:35:38;;;;;;;26.43;4.93;;;6.10;99.90;;;;;;4861166;29;20049;-85
2023/01/30 07:38:04;;;;;;;23.00;5.10;;;6.20;99.90;;;;;;4825650;29;20494;-82
2023/01/30 07:40:31;;;;;;;26.30;6.07;;;6.20;99.90;;;;;;4854756;29;20045;-83
2023/01/30 07:43:01;;;;;;;24.73;4.53;;;6.20;99.90;;;;;;4843992;29;20055;-83
2023/01/30 07:45:33;;;;;;;27.83;4.93;;;6.10;99.90;;;;;;4828334;29;20086;-83
2023/01/30 07:47:59;;;;;;;21.13;5.47;;;6.20;99.90;;;;;;4828044;29;20061;-83
2023/01/30 07:50:25;;;;;;;22.73;5.03;;;6.20;99.90;;;;;;4856010;29;20053;-83
2023/01/30 07:52:50;;;;;;;23.30;5.20;;;6.20;99.90;;;;;;4842898;29;20060;-83
2023/01/30 07:55:16;;;;;;;24.53;5.63;;;6.20;99.90;;;;;;4827836;29;20122;-84
2023/01/30 07:57:45;;;;;;;26.67;5.17;;;6.20;99.90;;;;;;4856805;29;20048;-83
2023/01/30 08:00:12;;;;;;;23.83;5.60;;;6.20;99.90;;;;;;4843677;29;20153;-83
2023/01/30 08:02:37;;;;;;;29.73;5.47;;;6.30;99.90;;;;;;4836179;29;20038;-82
2023/01/30 08:05:08;;;;;;;24.00;5.70;;;6.20;99.90;;;;;;4857550;29;20049;-86
2023/01/30 08:07:33;;;;;;;22.80;4.87;;;6.30;99.90;;;;;;4845669;29;20045;-83
2023/01/30 08:09:59;;;;;;;17.13;4.80;;;6.30;99.90;;;;;;4845575;29;20040;-82
2023/01/30 08:12:28;;;;;;;22.57;5.13;;;6.30;99.90;;;;;;4847961;29;20059;-84
2023/01/30 08:14:53;;;;;;;20.33;4.97;;;6.40;99.90;;;;;;4849683;29;20049;-83
2023/01/30 08:17:19;;;;;;;24.40;5.40;;;6.40;99.90;;;;;;4844692;29;20041;-82
2023/01/30 08:19:45;;;;;;;23.53;4.80;;;6.40;99.90;;;;;;4816931;29;20045;-82
2023/01/30 08:22:11;;;;;;;26.40;5.47;;;6.50;99.90;;;;;;4831679;29;20041;-82
2023/01/30 08:24:37;;;;;;;24.77;5.10;;;6.50;99.90;;;;;;4833864;29;20049;-83
2023/01/30 08:27:05;;;;;;;25.67;5.47;;;6.50;99.90;;;;;;4864899;29;20509;-83
2023/01/30 08:29:31;;;;;;;23.73;4.83;;;6.50;99.90;;;;;;4875443;29;20076;-83
2023/01/30 08:31:58;;;;;;;25.27;5.70;;;6.60;99.90;;;;;;4840928;29;20446;-82
2023/01/30 08:34:24;;;;;;;24.43;5.53;;;6.50;99.90;;;;;;4865800;29;20111;-82
2023/01/30 08:36:53;;;;;;;26.17;5.40;;;6.60;99.90;;;;;;4838515;29;20048;-86
2023/01/30 08:39:19;;;;;;;31.63;5.80;;;6.60;99.90;;;;;;4849661;29;20048;-82
2023/01/30 08:41:44;;;;;;;22.53;4.30;;;6.60;99.90;;;;;;4855782;29;20042;-83
2023/01/30 08:44:13;;;;;;;21.43;5.00;;;6.60;99.90;;;;;;4836783;29;20048;-85
2023/01/30 08:46:39;;;;;;;21.77;4.93;;;6.60;99.90;;;;;;4849495;29;20085;-83
2023/01/30 08:49:05;;;;;;;26.50;5.33;;;6.60;99.90;;;;;;4848997;29;20948;-84
2023/01/30 08:51:31;;;;;;;25.43;5.10;;;6.60;99.90;;;;;;4842548;29;20045;-83
2023/01/30 08:53:57;;;;;;;27.17;5.37;;;6.60;99.90;;;;;;4848758;29;20059;-83
2023/01/30 08:56:23;;;;;;;23.43;5.40;;;6.60;99.90;;;;;;4839504;29;20040;-82
2023/01/30 08:58:49;;;;;;;27.60;5.90;;;6.60;99.90;;;;;;4848772;29;20116;-84
2023/01/30 09:01:16;;;;;;;22.50;5.83;;;6.60;99.90;;;;;;4876881;29;20136;-84
2023/01/30 09:03:41;;;;;;;19.33;4.80;;;6.70;99.90;;;;;;4846741;29;20045;-83
2023/01/30 09:06:08;;;;;;;21.87;5.23;;;6.70;99.90;;;;;;4847374;29;20053;-82
2023/01/30 09:08:34;;;;;;;22.93;5.73;;;6.70;99.90;;;;;;4849658;29;20064;-82
2023/01/30 09:11:01;;;;;;;23.07;5.93;;;6.70;99.90;;;;;;4830429;29;20597;-82
2023/01/30 09:13:42;;;;;;;23.63;5.07;;;6.80;99.90;;;;;;4816152;29;20502;-85
2023/01/30 09:16:10;;;;;;;22.07;4.57;;;6.80;99.90;;;;;;4838220;29;20477;-85
2023/01/30 09:18:40;;;;;;;26.87;5.57;;;6.90;99.90;;;;;;4834349;29;20104;-83
2023/01/30 09:21:25;;;;;;;27.43;5.97;;;6.90;99.90;;;;;;4855342;29;20092;-86
2023/01/30 09:23:51;;;;;;;24.10;4.93;;;6.90;99.90;;;;;;4849076;29;20074;-82
2023/01/30 09:26:17;;;;;;;27.80;5.17;;;6.90;99.90;;;;;;4839101;29;20060;-81
2023/01/30 09:28:42;;;;;;;25.90;5.80;;;6.90;99.90;;;;;;4844946;29;20119;-83
2023/01/30 09:31:08;;;;;;;19.43;4.77;;;6.90;99.90;;;;;;4854320;29;20056;-82
2023/01/30 09:33:34;;;;;;;25.10;5.13;;;7.00;99.90;;;;;;4848480;29;20041;-83
2023/01/30 09:36:05;;;;;;;21.47;5.00;;;7.00;99.90;;;;;;4854041;29;20053;-86
2023/01/30 09:38:30;;;;;;;19.30;4.77;;;7.10;99.90;;;;;;4830626;29;20042;-83
2023/01/30 09:40:59;;;;;;;23.63;4.93;;;7.10;99.90;;;;;;4842752;29;20051;-84
2023/01/30 09:43:58;;;;;;;22.90;4.93;;;7.10;99.90;;;;;;4839101;29;20417;-83
2023/01/30 09:46:24;;;;;;;17.20;4.47;;;7.10;99.90;;;;;;4828391;29;20060;-82
2023/01/30 09:49:04;;;;;;;28.50;5.30;;;7.10;99.90;;;;;;4861776;29;20061;-83
2023/01/30 09:51:57;;;;;;;21.00;4.80;;;7.20;99.90;;;;;;4857686;29;20466;-83
2023/01/30 09:54:31;;;;;;;22.33;5.20;;;7.40;99.90;;;;;;4844681;29;20050;-84
2023/01/30 09:57:22;;;;;;;25.07;5.03;;;7.40;99.90;;;;;;4848881;29;20086;-85
2023/01/30 10:00:16;;;;;;;26.43;5.63;;;7.40;99.90;;;;;;4859684;29;20077;-82
2023/01/30 10:02:51;;;;;;;21.27;4.97;;;7.40;99.90;;;;;;4878390;29;20109;-82
2023/01/30 10:05:20;;;;;;;26.97;5.50;;;7.40;99.90;;;;;;4845269;29;20052;-83
2023/01/30 10:07:52;;;;;;;19.52;4.28;;;7.30;99.90;;;;;;4833183;29;20537;-83
2023/01/30 10:10:30;;;;;;;23.03;4.33;;;7.10;99.90;;;;;;4844605;29;20428;-83
2023/01/30 10:13:22;;;;;;;19.27;4.43;;;6.90;99.90;;;;;;4846599;29;20061;-82
2023/01/30 10:16:13;;;;;;;20.87;4.90;;;6.70;99.90;;;;;;4878657;29;20055;-82
2023/01/30 10:18:42;;;;;;;23.37;4.97;;;6.60;99.90;;;;;;4836342;29;20045;-82
2023/01/30 10:21:35;;;;;;;26.93;5.83;;;6.50;99.90;;;;;;4846828;29;20109;-83
2023/01/30 10:24:25;;;;;;;23.80;5.03;;;6.60;99.90;;;;;;4831466;29;20045;-82
2023/01/30 10:26:51;;;;;;;23.67;5.00;;;6.60;99.90;;;;;;4844590;29;20033;-82
2023/01/30 10:29:27;;;;;;;25.90;6.30;;;6.70;99.90;;;;;;4846352;29;20124;-81
2023/01/30 10:32:13;;;;;;;24.73;6.37;;;6.70;99.90;;;;;;4838135;29;20037;-82
2023/01/30 10:34:46;;;;;;;30.50;5.90;;;6.90;99.90;;;;;;4842377;29;20421;-83
2023/01/30 10:37:54;;;;;;;28.00;6.03;;;6.90;99.90;;;;;;4828249;29;20109;-83
2023/01/30 10:40:32;;;;;;;24.37;5.67;;;7.00;99.90;;;;;;4823209;29;20085;-82
2023/01/30 10:43:26;;;;;;;25.80;5.10;;;7.10;99.90;;;;;;4846268;29;20073;-82
2023/01/30 10:46:19;;;;;;;25.63;5.33;;;7.10;99.90;;;;;;4878372;29;20052;-85
2023/01/30 10:49:03;;;;;;;22.83;6.10;;;7.10;99.90;;;;;;4822174;29;1159475;-82
2023/01/30 10:51:48;;;;;;;23.63;5.10;;;7.10;99.90;;;;;;4840491;29;20045;-85
2023/01/30 10:54:17;;;;;;;20.50;5.17;;;6.90;99.90;;;;;;4825555;29;20104;-86
2023/01/30 10:57:11;;;;;;;14.70;3.70;;;6.60;99.90;;;;;;4825312;29;20511;-85
2023/01/30 10:59:52;;;;;;;18.63;3.57;;;6.10;99.90;;;;;;4825600;29;20068;-83
2023/01/30 11:02:46;;;;;;;11.13;2.50;;;5.60;99.90;;;;;;4828255;29;20052;-85
2023/01/30 11:05:20;;;;;;;11.63;2.30;;;5.40;99.90;;;;;;4842751;29;20567;-83
2023/01/30 11:07:52;;;;;;;12.27;2.90;;;5.30;99.90;;;;;;4862059;29;20057;-84
2023/01/30 11:10:26;;;;;;;14.20;2.90;;;5.40;99.90;;;;;;4829747;29;20111;-83
2023/01/30 11:13:12;;;;;;;12.05;2.72;;;5.50;99.90;;;;;;4828869;29;20057;-83
2023/01/30 11:15:43;;;;;;;15.07;2.50;;;5.60;99.90;;;;;;4837596;29;20049;-83
2023/01/30 11:18:09;;;;;;;10.25;2.90;;;5.70;99.90;;;;;;4828219;29;20053;-83
2023/01/30 11:20:53;;;;;;;12.27;2.87;;;5.90;99.90;;;;;;4853637;29;20037;-81
2023/01/30 11:23:45;;;;;;;14.40;3.27;;;6.10;99.90;;;;;;4843439;29;20436;-82
2023/01/30 11:26:40;;;;;;;15.57;2.90;;;6.20;99.90;;;;;;4829108;29;20517;-84
2023/01/30 11:29:27;;;;;;;17.70;3.43;;;6.30;99.90;;;;;;4836891;29;20083;-85
2023/01/30 11:31:53;;;;;;;18.43;3.90;;;6.40;99.90;;;;;;4878426;29;20037;-81
2023/01/30 11:34:22;;;;;;;15.97;3.77;;;6.50;99.90;;;;;;4845926;29;20049;-82
2023/01/30 11:37:15;;;;;;;15.50;3.40;;;6.60;99.90;;;;;;4845780;29;20493;-84
2023/01/30 11:39:51;;;;;;;17.27;3.47;;;6.70;99.90;;;;;;4832351;29;20052;-83
2023/01/30 11:42:22;;;;;;;14.87;3.20;;;6.80;99.90;;;;;;4853648;29;20045;-82
2023/01/30 11:44:55;;;;;;;18.20;3.43;;;6.80;99.90;;;;;;4846042;29;20080;-82
2023/01/30 11:47:27;;;;;;;13.67;3.40;;;6.80;99.90;;;;;;4845663;29;20124;-82
2023/01/30 11:50:00;;;;;;;15.20;3.20;;;6.80;99.90;;;;;;4853010;29;20421;-84
2023/01/30 11:52:29;;;;;;;12.60;3.47;;;6.90;99.90;;;;;;4831153;29;20293;-85
2023/01/30 11:55:07;;;;;;;16.23;2.93;;;6.90;99.90;;;;;;4852163;29;20042;-83
2023/01/30 11:57:43;;;;;;;19.10;3.67;;;6.90;99.90;;;;;;4824518;29;20113;-82
2023/01/30 12:00:23;;;;;;;12.20;2.63;;;7.00;99.90;;;;;;4830165;29;20129;-83
2023/01/30 12:02:53;;;;;;;12.13;2.50;;;7.00;99.90;;;;;;4847804;29;20056;-84
2023/01/30 12:05:35;;;;;;;12.87;3.30;;;7.00;99.90;;;;;;4834949;29;20049;-84
2023/01/30 12:08:18;;;;;;;9.87;2.67;;;7.00;99.90;;;;;;4845180;29;20049;-86
2023/01/30 12:10:47;;;;;;;13.47;2.87;;;7.10;99.90;;;;;;4837746;29;20056;-83
2023/01/30 12:13:40;;;;;;;15.65;2.72;;;7.20;99.90;;;;;;4845789;29;20045;-85
2023/01/30 12:16:24;;;;;;;9.23;2.03;;;7.20;99.90;;;;;;4823622;29;20056;-82
2023/01/30 12:19:12;;;;;;;7.60;2.00;;;7.20;99.90;;;;;;4836811;29;20501;-85
2023/01/30 12:22:04;;;;;;;10.70;2.83;;;7.20;99.90;;;;;;4837054;29;20114;-85
2023/01/30 12:24:49;;;;;;;9.40;2.10;;;7.20;99.90;;;;;;4859181;29;20039;-85
2023/01/30 12:27:47;;;;;;;8.97;2.20;;;7.30;99.90;;;;;;4845629;29;20073;-84
2023/01/30 12:30:53;;;;;;;11.40;3.03;;;7.20;99.90;;;;;;4850824;29;20053;-83
2023/01/30 12:33:22;;;;;;;8.37;2.47;;;7.20;99.90;;;;;;4809444;29;20054;-83
2023/01/30 12:36:05;;;;;;;13.87;2.50;;;7.20;99.90;;;;;;4809320;29;20054;-86
2023/01/30 12:38:39;;;;;;;14.27;2.93;;;7.30;99.90;;;;;;4832002;29;20089;-84
2023/01/30 12:41:33;;;;;;;15.17;3.00;;;7.30;99.90;;;;;;4850877;29;20045;-81
2023/01/30 12:44:24;;;;;;;15.83;3.20;;;7.40;99.90;;;;;;4833340;29;20086;-85
2023/01/30 12:47:07;;;;;;;12.87;2.80;;;7.40;99.90;;;;;;4856741;29;20060;-85
2023/01/30 12:49:57;;;;;;;11.20;2.67;;;7.40;99.90;;;;;;4854520;29;20068;-83
2023/01/30 12:52:47;;;;;;;17.20;3.20;;;7.40;99.90;;;;;;4842888;29;20049;-84
2023/01/30 12:55:37;;;;;;;15.07;2.93;;;7.40;99.90;;;;;;4842182;29;20056;-83
2023/01/30 12:58:27;;;;;;;18.30;3.37;;;7.50;99.90;;;;;;4829326;29;20490;-84
2023/01/30 13:01:15;;;;;;;12.80;3.33;;;7.50;99.90;;;;;;4851622;29;20121;-83
2023/01/30 13:04:31;;;;;;;17.50;4.13;;;7.50;99.90;;;;;;4842060;29;20045;-84
2023/01/30 13:07:05;;;;;;;14.37;3.23;;;7.50;99.90;;;;;;4784784;29;20066;-82
2023/01/30 13:09:34;;;;;;;17.87;3.60;;;7.60;99.90;;;;;;4851060;29;20061;-82
2023/01/30 13:12:13;;;;;;;16.67;3.83;;;7.60;99.90;;;;;;4854011;29;20049;-85
2023/01/30 13:14:55;;;;;;;16.27;5.47;;;7.60;99.90;;;;;;4840626;29;20046;-83
2023/01/30 13:17:48;;;;;;;17.58;3.85;;;7.60;99.90;;;;;;4858494;29;20053;-82
2023/01/30 13:20:35;;;;;;;21.57;4.60;;;7.60;99.90;;;;;;4844921;29;20048;-82
2023/01/30 13:23:23;;;;;;;15.93;3.53;;;7.70;99.90;;;;;;4841045;29;20044;-82